sensor_id;sensor_type;location;lat;lon;timestamp;P1;durP1;ratioP1;P2;durP2;ratioP2
34924;SDS011;21130;51.728;8.748;2024-03-06T00:02:22;38.30;;;27.80;;
34924;SDS011;21130;51.728;8.748;2024-03-06T00:04:48;40.63;;;28.42;;
34924;SDS011;21130;51.728;8.748;2024-03-06T00:07:16;39.72;;;27.77;;
34924;SDS011;21130;51.728;8.748;2024-03-06T00:09:42;36.13;;;25.42;;
34924;SDS011;21130;51.728;8.748;2024-03-06T00:12:09;32.13;;;24.58;;
34924;SDS011;21130;51.728;8.748;2024-03-06T00:14:36;29.63;;;23.38;;
34924;SDS011;21130;51.728;8.748;2024-03-06T00:17:03;31.95;;;24.98;;
34924;SDS011;21130;51.728;8.748;2024-03-06T00:19:29;35.42;;;25.67;;
34924;SDS011;21130;51.728;8.748;2024-03-06T00:21:56;35.83;;;26.65;;
34924;SDS011;21130;51.728;8.748;2024-03-06T00:24:24;39.75;;;28.35;;
34924;SDS011;21130;51.728;8.748;2024-03-06T00:26:52;38.90;;;26.80;;
34924;SDS011;21130;51.728;8.748;2024-03-06T00:29:18;42.13;;;29.55;;
34924;SDS011;21130;51.728;8.748;2024-03-06T00:31:45;38.13;;;27.25;;
34924;SDS011;21130;51.728;8.748;2024-03-06T00:34:14;39.28;;;27.17;;
34924;SDS011;21130;51.728;8.748;2024-03-06T00:36:40;36.95;;;26.23;;
34924;SDS011;21130;51.728;8.748;2024-03-06T00:39:07;37.63;;;26.05;;
34924;SDS011;21130;51.728;8.748;2024-03-06T00:41:35;39.63;;;27.33;;
34924;SDS011;21130;51.728;8.748;2024-03-06T00:44:02;39.95;;;28.67;;
34924;SDS011;21130;51.728;8.748;2024-03-06T00:46:29;41.70;;;28.17;;
34924;SDS011;21130;51.728;8.748;2024-03-06T00:48:55;42.35;;;29.40;;
34924;SDS011;21130;51.728;8.748;2024-03-06T00:51:21;45.38;;;29.98;;
34924;SDS011;21130;51.728;8.748;2024-03-06T00:53:48;44.33;;;30.08;;
34924;SDS011;21130;51.728;8.748;2024-03-06T00:56:18;46.65;;;30.85;;
34924;SDS011;21130;51.728;8.748;2024-03-06T00:58:45;47.85;;;30.85;;
34924;SDS011;21130;51.728;8.748;2024-03-06T01:01:12;46.58;;;31.70;;
34924;SDS011;21130;51.728;8.748;2024-03-06T01:03:38;48.28;;;31.50;;
34924;SDS011;21130;51.728;8.748;2024-03-06T01:06:05;44.97;;;30.02;;
34924;SDS011;21130;51.728;8.748;2024-03-06T01:08:31;44.60;;;30.77;;
34924;SDS011;21130;51.728;8.748;2024-03-06T01:10:58;45.78;;;30.38;;
34924;SDS011;21130;51.728;8.748;2024-03-06T01:13:24;42.75;;;30.10;;
34924;SDS011;21130;51.728;8.748;2024-03-06T01:15:52;44.58;;;30.30;;
34924;SDS011;21130;51.728;8.748;2024-03-06T01:18:21;44.80;;;29.50;;
34924;SDS011;21130;51.728;8.748;2024-03-06T01:20:47;44.35;;;30.63;;
34924;SDS011;21130;51.728;8.748;2024-03-06T01:23:14;43.20;;;29.67;;
34924;SDS011;21130;51.728;8.748;2024-03-06T01:25:42;45.78;;;30.70;;
34924;SDS011;21130;51.728;8.748;2024-03-06T01:28:08;43.10;;;29.73;;
34924;SDS011;21130;51.728;8.748;2024-03-06T01:30:34;42.03;;;28.40;;
34924;SDS011;21130;51.728;8.748;2024-03-06T01:33:02;43.22;;;28.27;;
34924;SDS011;21130;51.728;8.748;2024-03-06T01:35:30;36.08;;;26.25;;
34924;SDS011;21130;51.728;8.748;2024-03-06T01:37:56;38.55;;;26.48;;
34924;SDS011;21130;51.728;8.748;2024-03-06T01:40:23;33.90;;;24.27;;
34924;SDS011;21130;51.728;8.748;2024-03-06T01:42:49;37.15;;;25.15;;
34924;SDS011;21130;51.728;8.748;2024-03-06T01:45:16;33.47;;;25.15;;
34924;SDS011;21130;51.728;8.748;2024-03-06T01:47:42;35.47;;;24.05;;
34924;SDS011;21130;51.728;8.748;2024-03-06T01:50:10;30.40;;;22.58;;
34924;SDS011;21130;51.728;8.748;2024-03-06T01:52:37;36.63;;;24.98;;
34924;SDS011;21130;51.728;8.748;2024-03-06T01:55:06;36.55;;;23.95;;
34924;SDS011;21130;51.728;8.748;2024-03-06T01:57:33;32.72;;;24.23;;
34924;SDS011;21130;51.728;8.748;2024-03-06T02:00:00;35.88;;;25.13;;
34924;SDS011;21130;51.728;8.748;2024-03-06T02:02:28;34.08;;;24.70;;
34924;SDS011;21130;51.728;8.748;2024-03-06T02:04:54;34.90;;;25.02;;
34924;SDS011;21130;51.728;8.748;2024-03-06T02:07:23;36.00;;;25.20;;
34924;SDS011;21130;51.728;8.748;2024-03-06T02:09:50;37.55;;;25.67;;
34924;SDS011;21130;51.728;8.748;2024-03-06T02:12:17;37.08;;;25.67;;
34924;SDS011;21130;51.728;8.748;2024-03-06T02:14:43;38.40;;;26.25;;
34924;SDS011;21130;51.728;8.748;2024-03-06T02:17:10;37.85;;;26.92;;
34924;SDS011;21130;51.728;8.748;2024-03-06T02:19:37;41.15;;;27.17;;
34924;SDS011;21130;51.728;8.748;2024-03-06T02:22:10;40.80;;;27.88;;
34924;SDS011;21130;51.728;8.748;2024-03-06T02:24:37;39.88;;;27.92;;
34924;SDS011;21130;51.728;8.748;2024-03-06T02:27:04;40.58;;;28.27;;
34924;SDS011;21130;51.728;8.748;2024-03-06T02:29:31;37.47;;;27.08;;
34924;SDS011;21130;51.728;8.748;2024-03-06T02:31:58;40.00;;;28.15;;
34924;SDS011;21130;51.728;8.748;2024-03-06T02:34:26;35.22;;;25.27;;
34924;SDS011;21130;51.728;8.748;2024-03-06T02:36:54;39.80;;;27.65;;
34924;SDS011;21130;51.728;8.748;2024-03-06T02:39:21;41.45;;;29.17;;
34924;SDS011;21130;51.728;8.748;2024-03-06T02:41:48;41.38;;;27.63;;
34924;SDS011;21130;51.728;8.748;2024-03-06T02:44:14;40.85;;;27.65;;
34924;SDS011;21130;51.728;8.748;2024-03-06T02:46:45;40.70;;;27.60;;
34924;SDS011;21130;51.728;8.748;2024-03-06T02:49:13;43.20;;;28.25;;
34924;SDS011;21130;51.728;8.748;2024-03-06T02:51:39;39.65;;;28.02;;
34924;SDS011;21130;51.728;8.748;2024-03-06T02:54:06;38.67;;;27.67;;
34924;SDS011;21130;51.728;8.748;2024-03-06T02:56:34;40.67;;;27.58;;
34924;SDS011;21130;51.728;8.748;2024-03-06T02:59:00;38.15;;;26.25;;
34924;SDS011;21130;51.728;8.748;2024-03-06T03:01:29;37.70;;;26.80;;
34924;SDS011;21130;51.728;8.748;2024-03-06T03:03:57;37.65;;;27.33;;
34924;SDS011;21130;51.728;8.748;2024-03-06T03:06:23;41.00;;;27.98;;
34924;SDS011;21130;51.728;8.748;2024-03-06T03:08:50;42.78;;;29.00;;
34924;SDS011;21130;51.728;8.748;2024-03-06T03:11:16;45.78;;;30.17;;
34924;SDS011;21130;51.728;8.748;2024-03-06T03:13:44;40.33;;;28.80;;
34924;SDS011;21130;51.728;8.748;2024-03-06T03:16:15;42.17;;;28.25;;
34924;SDS011;21130;51.728;8.748;2024-03-06T03:18:42;41.20;;;28.27;;
34924;SDS011;21130;51.728;8.748;2024-03-06T03:21:10;42.80;;;28.20;;
34924;SDS011;21130;51.728;8.748;2024-03-06T03:23:37;42.35;;;29.67;;
34924;SDS011;21130;51.728;8.748;2024-03-06T03:26:04;43.55;;;31.33;;
34924;SDS011;21130;51.728;8.748;2024-03-06T03:28:30;45.50;;;31.70;;
34924;SDS011;21130;51.728;8.748;2024-03-06T03:30:58;48.78;;;32.85;;
34924;SDS011;21130;51.728;8.748;2024-03-06T03:33:25;44.53;;;30.27;;
34924;SDS011;21130;51.728;8.748;2024-03-06T03:35:51;47.65;;;31.92;;
34924;SDS011;21130;51.728;8.748;2024-03-06T03:38:18;49.60;;;33.50;;
34924;SDS011;21130;51.728;8.748;2024-03-06T03:40:44;48.22;;;32.45;;
34924;SDS011;21130;51.728;8.748;2024-03-06T03:43:11;46.80;;;32.83;;
34924;SDS011;21130;51.728;8.748;2024-03-06T03:45:37;48.60;;;33.83;;
34924;SDS011;21130;51.728;8.748;2024-03-06T03:48:05;53.35;;;34.92;;
34924;SDS011;21130;51.728;8.748;2024-03-06T03:50:32;51.38;;;34.05;;
34924;SDS011;21130;51.728;8.748;2024-03-06T03:52:58;50.97;;;33.47;;
34924;SDS011;21130;51.728;8.748;2024-03-06T03:55:26;47.92;;;33.10;;
34924;SDS011;21130;51.728;8.748;2024-03-06T03:57:52;50.35;;;34.38;;
34924;SDS011;21130;51.728;8.748;2024-03-06T04:00:19;49.50;;;34.42;;
34924;SDS011;21130;51.728;8.748;2024-03-06T04:02:48;50.67;;;34.40;;
34924;SDS011;21130;51.728;8.748;2024-03-06T04:05:15;47.17;;;32.45;;
34924;SDS011;21130;51.728;8.748;2024-03-06T04:07:43;50.60;;;34.60;;
34924;SDS011;21130;51.728;8.748;2024-03-06T04:10:10;52.03;;;34.33;;
34924;SDS011;21130;51.728;8.748;2024-03-06T04:12:36;51.53;;;35.17;;
34924;SDS011;21130;51.728;8.748;2024-03-06T04:15:04;51.42;;;33.92;;
34924;SDS011;21130;51.728;8.748;2024-03-06T04:17:31;53.67;;;34.58;;
34924;SDS011;21130;51.728;8.748;2024-03-06T04:19:58;48.83;;;32.75;;
34924;SDS011;21130;51.728;8.748;2024-03-06T04:22:26;52.53;;;33.58;;
34924;SDS011;21130;51.728;8.748;2024-03-06T04:24:54;49.38;;;33.58;;
34924;SDS011;21130;51.728;8.748;2024-03-06T04:27:23;53.55;;;34.72;;
34924;SDS011;21130;51.728;8.748;2024-03-06T04:29:49;52.80;;;35.83;;
34924;SDS011;21130;51.728;8.748;2024-03-06T04:32:16;54.03;;;35.20;;
34924;SDS011;21130;51.728;8.748;2024-03-06T04:34:42;52.30;;;35.10;;
34924;SDS011;21130;51.728;8.748;2024-03-06T04:37:09;51.40;;;33.40;;
34924;SDS011;21130;51.728;8.748;2024-03-06T04:39:37;52.33;;;34.72;;
34924;SDS011;21130;51.728;8.748;2024-03-06T04:42:04;54.97;;;35.22;;
34924;SDS011;21130;51.728;8.748;2024-03-06T04:44:33;54.80;;;35.45;;
34924;SDS011;21130;51.728;8.748;2024-03-06T04:46:59;55.92;;;37.13;;
34924;SDS011;21130;51.728;8.748;2024-03-06T04:49:26;55.92;;;36.55;;
34924;SDS011;21130;51.728;8.748;2024-03-06T04:51:52;58.47;;;38.28;;
34924;SDS011;21130;51.728;8.748;2024-03-06T04:54:18;57.22;;;36.13;;
34924;SDS011;21130;51.728;8.748;2024-03-06T04:56:46;60.70;;;37.40;;
34924;SDS011;21130;51.728;8.748;2024-03-06T04:59:13;55.88;;;37.67;;
34924;SDS011;21130;51.728;8.748;2024-03-06T05:01:39;60.83;;;37.88;;
34924;SDS011;21130;51.728;8.748;2024-03-06T05:04:06;62.35;;;38.03;;
34924;SDS011;21130;51.728;8.748;2024-03-06T05:06:32;58.63;;;37.30;;
34924;SDS011;21130;51.728;8.748;2024-03-06T05:09:00;64.22;;;39.80;;
34924;SDS011;21130;51.728;8.748;2024-03-06T05:11:27;63.40;;;40.10;;
34924;SDS011;21130;51.728;8.748;2024-03-06T05:13:57;65.65;;;41.70;;
34924;SDS011;21130;51.728;8.748;2024-03-06T05:16:24;66.18;;;39.53;;
34924;SDS011;21130;51.728;8.748;2024-03-06T05:18:51;69.30;;;40.17;;
34924;SDS011;21130;51.728;8.748;2024-03-06T05:21:18;60.03;;;38.03;;
34924;SDS011;21130;51.728;8.748;2024-03-06T05:23:44;64.82;;;39.15;;
34924;SDS011;21130;51.728;8.748;2024-03-06T05:26:11;61.92;;;39.15;;
34924;SDS011;21130;51.728;8.748;2024-03-06T05:28:38;62.97;;;40.60;;
34924;SDS011;21130;51.728;8.748;2024-03-06T05:31:15;70.13;;;42.50;;
34924;SDS011;21130;51.728;8.748;2024-03-06T05:33:43;72.93;;;43.78;;
34924;SDS011;21130;51.728;8.748;2024-03-06T05:36:10;73.88;;;44.40;;
34924;SDS011;21130;51.728;8.748;2024-03-06T05:38:38;81.95;;;45.38;;
34924;SDS011;21130;51.728;8.748;2024-03-06T05:41:04;81.13;;;46.80;;
34924;SDS011;21130;51.728;8.748;2024-03-06T05:43:31;81.65;;;46.30;;
34924;SDS011;21130;51.728;8.748;2024-03-06T05:45:58;76.03;;;44.78;;
34924;SDS011;21130;51.728;8.748;2024-03-06T05:48:27;74.93;;;44.50;;
34924;SDS011;21130;51.728;8.748;2024-03-06T05:50:53;81.35;;;45.70;;
34924;SDS011;21130;51.728;8.748;2024-03-06T05:53:19;78.55;;;45.78;;
34924;SDS011;21130;51.728;8.748;2024-03-06T05:55:46;75.60;;;44.75;;
34924;SDS011;21130;51.728;8.748;2024-03-06T05:58:12;78.65;;;45.30;;
34924;SDS011;21130;51.728;8.748;2024-03-06T06:00:39;76.70;;;46.13;;
34924;SDS011;21130;51.728;8.748;2024-03-06T06:03:05;73.25;;;44.47;;
34924;SDS011;21130;51.728;8.748;2024-03-06T06:08:11;78.40;;;43.60;;
34924;SDS011;21130;51.728;8.748;2024-03-06T06:10:38;75.05;;;45.13;;
34924;SDS011;21130;51.728;8.748;2024-03-06T06:13:04;74.00;;;43.90;;
34924;SDS011;21130;51.728;8.748;2024-03-06T06:15:31;70.28;;;43.03;;
34924;SDS011;21130;51.728;8.748;2024-03-06T06:17:57;69.85;;;41.00;;
34924;SDS011;21130;51.728;8.748;2024-03-06T06:20:23;70.10;;;42.15;;
34924;SDS011;21130;51.728;8.748;2024-03-06T06:22:51;67.35;;;41.95;;
34924;SDS011;21130;51.728;8.748;2024-03-06T06:25:18;68.60;;;42.25;;
34924;SDS011;21130;51.728;8.748;2024-03-06T06:27:44;66.97;;;41.92;;
34924;SDS011;21130;51.728;8.748;2024-03-06T06:30:11;67.95;;;42.15;;
34924;SDS011;21130;51.728;8.748;2024-03-06T06:32:38;66.38;;;40.92;;
34924;SDS011;21130;51.728;8.748;2024-03-06T06:35:05;69.28;;;41.50;;
34924;SDS011;21130;51.728;8.748;2024-03-06T06:37:32;67.07;;;43.67;;
34924;SDS011;21130;51.728;8.748;2024-03-06T06:40:00;70.13;;;42.78;;
34924;SDS011;21130;51.728;8.748;2024-03-06T06:42:31;69.63;;;43.42;;
34924;SDS011;21130;51.728;8.748;2024-03-06T06:44:58;67.70;;;41.05;;
34924;SDS011;21130;51.728;8.748;2024-03-06T06:47:25;71.55;;;40.80;;
34924;SDS011;21130;51.728;8.748;2024-03-06T06:49:52;66.25;;;39.90;;
34924;SDS011;21130;51.728;8.748;2024-03-06T06:52:18;71.15;;;42.22;;
34924;SDS011;21130;51.728;8.748;2024-03-06T06:54:46;79.15;;;44.90;;
34924;SDS011;21130;51.728;8.748;2024-03-06T06:57:13;72.60;;;43.35;;
34924;SDS011;21130;51.728;8.748;2024-03-06T06:59:40;72.03;;;44.40;;
34924;SDS011;21130;51.728;8.748;2024-03-06T07:02:06;71.43;;;44.50;;
34924;SDS011;21130;51.728;8.748;2024-03-06T07:04:33;72.18;;;44.25;;
34924;SDS011;21130;51.728;8.748;2024-03-06T07:06:59;68.32;;;43.13;;
34924;SDS011;21130;51.728;8.748;2024-03-06T07:09:26;66.18;;;43.25;;
34924;SDS011;21130;51.728;8.748;2024-03-06T07:11:54;61.08;;;41.00;;
34924;SDS011;21130;51.728;8.748;2024-03-06T07:14:22;65.15;;;42.72;;
34924;SDS011;21130;51.728;8.748;2024-03-06T07:16:48;60.88;;;42.40;;
34924;SDS011;21130;51.728;8.748;2024-03-06T07:19:15;63.15;;;42.42;;
34924;SDS011;21130;51.728;8.748;2024-03-06T07:21:42;60.00;;;41.45;;
34924;SDS011;21130;51.728;8.748;2024-03-06T07:24:08;58.65;;;40.28;;
34924;SDS011;21130;51.728;8.748;2024-03-06T07:26:35;58.55;;;39.55;;
34924;SDS011;21130;51.728;8.748;2024-03-06T07:29:01;56.22;;;40.53;;
34924;SDS011;21130;51.728;8.748;2024-03-06T07:31:29;58.88;;;40.97;;
34924;SDS011;21130;51.728;8.748;2024-03-06T07:33:57;59.72;;;40.33;;
34924;SDS011;21130;51.728;8.748;2024-03-06T07:36:23;57.15;;;40.67;;
34924;SDS011;21130;51.728;8.748;2024-03-06T07:38:49;58.10;;;40.30;;
34924;SDS011;21130;51.728;8.748;2024-03-06T07:41:16;60.25;;;41.00;;
34924;SDS011;21130;51.728;8.748;2024-03-06T07:43:42;59.63;;;39.67;;
34924;SDS011;21130;51.728;8.748;2024-03-06T07:46:09;54.47;;;38.40;;
34924;SDS011;21130;51.728;8.748;2024-03-06T07:48:41;56.92;;;40.40;;
34924;SDS011;21130;51.728;8.748;2024-03-06T07:51:09;56.72;;;39.90;;
34924;SDS011;21130;51.728;8.748;2024-03-06T07:53:35;58.45;;;40.15;;
34924;SDS011;21130;51.728;8.748;2024-03-06T07:56:02;54.40;;;39.20;;
34924;SDS011;21130;51.728;8.748;2024-03-06T08:01:02;55.58;;;39.40;;
34924;SDS011;21130;51.728;8.748;2024-03-06T08:03:28;52.70;;;37.67;;
34924;SDS011;21130;51.728;8.748;2024-03-06T08:05:56;51.70;;;38.28;;
34924;SDS011;21130;51.728;8.748;2024-03-06T08:08:23;52.80;;;37.45;;
34924;SDS011;21130;51.728;8.748;2024-03-06T08:10:50;49.72;;;37.00;;
34924;SDS011;21130;51.728;8.748;2024-03-06T08:13:16;55.10;;;38.65;;
34924;SDS011;21130;51.728;8.748;2024-03-06T08:15:44;51.63;;;37.00;;
34924;SDS011;21130;51.728;8.748;2024-03-06T08:18:11;50.75;;;37.15;;
34924;SDS011;21130;51.728;8.748;2024-03-06T08:20:38;53.83;;;39.13;;
34924;SDS011;21130;51.728;8.748;2024-03-06T08:23:06;53.72;;;39.08;;
34924;SDS011;21130;51.728;8.748;2024-03-06T08:25:35;50.60;;;37.60;;
34924;SDS011;21130;51.728;8.748;2024-03-06T08:28:02;52.80;;;39.63;;
34924;SDS011;21130;51.728;8.748;2024-03-06T08:30:30;52.50;;;37.65;;
34924;SDS011;21130;51.728;8.748;2024-03-06T08:32:57;50.60;;;37.63;;
34924;SDS011;21130;51.728;8.748;2024-03-06T08:35:24;53.53;;;38.50;;
34924;SDS011;21130;51.728;8.748;2024-03-06T08:37:50;52.45;;;37.47;;
34924;SDS011;21130;51.728;8.748;2024-03-06T08:40:18;53.60;;;38.22;;
34924;SDS011;21130;51.728;8.748;2024-03-06T08:42:45;55.35;;;39.78;;
34924;SDS011;21130;51.728;8.748;2024-03-06T08:45:13;58.88;;;41.67;;
34924;SDS011;21130;51.728;8.748;2024-03-06T08:47:40;54.88;;;39.58;;
34924;SDS011;21130;51.728;8.748;2024-03-06T08:50:09;63.35;;;43.72;;
34924;SDS011;21130;51.728;8.748;2024-03-06T08:52:36;58.95;;;41.58;;
34924;SDS011;21130;51.728;8.748;2024-03-06T08:55:03;58.92;;;41.28;;
34924;SDS011;21130;51.728;8.748;2024-03-06T08:57:32;58.05;;;41.47;;
34924;SDS011;21130;51.728;8.748;2024-03-06T08:59:58;55.35;;;40.05;;
34924;SDS011;21130;51.728;8.748;2024-03-06T09:02:25;57.10;;;41.10;;
34924;SDS011;21130;51.728;8.748;2024-03-06T09:04:52;55.10;;;39.50;;
34924;SDS011;21130;51.728;8.748;2024-03-06T09:07:19;55.88;;;39.45;;
34924;SDS011;21130;51.728;8.748;2024-03-06T09:09:48;60.95;;;40.25;;
34924;SDS011;21130;51.728;8.748;2024-03-06T09:12:15;58.45;;;40.30;;
34924;SDS011;21130;51.728;8.748;2024-03-06T09:14:43;63.28;;;42.33;;
34924;SDS011;21130;51.728;8.748;2024-03-06T09:17:10;57.70;;;40.83;;
34924;SDS011;21130;51.728;8.748;2024-03-06T09:19:38;57.70;;;40.70;;
34924;SDS011;21130;51.728;8.748;2024-03-06T09:22:05;54.15;;;39.88;;
34924;SDS011;21130;51.728;8.748;2024-03-06T09:24:31;55.10;;;40.60;;
34924;SDS011;21130;51.728;8.748;2024-03-06T09:26:57;53.97;;;40.15;;
34924;SDS011;21130;51.728;8.748;2024-03-06T09:29:24;54.70;;;39.78;;
34924;SDS011;21130;51.728;8.748;2024-03-06T09:31:52;54.85;;;39.95;;
34924;SDS011;21130;51.728;8.748;2024-03-06T09:34:19;57.15;;;41.60;;
34924;SDS011;21130;51.728;8.748;2024-03-06T09:36:47;56.75;;;41.42;;
34924;SDS011;21130;51.728;8.748;2024-03-06T09:39:14;57.70;;;41.22;;
34924;SDS011;21130;51.728;8.748;2024-03-06T09:41:42;54.45;;;41.20;;
34924;SDS011;21130;51.728;8.748;2024-03-06T09:44:09;53.78;;;39.10;;
34924;SDS011;21130;51.728;8.748;2024-03-06T09:46:36;59.42;;;39.70;;
34924;SDS011;21130;51.728;8.748;2024-03-06T09:49:04;57.40;;;40.50;;
34924;SDS011;21130;51.728;8.748;2024-03-06T09:51:33;53.90;;;39.63;;
34924;SDS011;21130;51.728;8.748;2024-03-06T09:54:00;54.70;;;39.30;;
34924;SDS011;21130;51.728;8.748;2024-03-06T09:56:28;54.45;;;39.42;;
34924;SDS011;21130;51.728;8.748;2024-03-06T09:58:54;56.38;;;39.92;;
34924;SDS011;21130;51.728;8.748;2024-03-06T10:01:21;56.10;;;39.72;;
34924;SDS011;21130;51.728;8.748;2024-03-06T10:03:49;53.50;;;38.58;;
34924;SDS011;21130;51.728;8.748;2024-03-06T10:06:17;53.00;;;39.03;;
34924;SDS011;21130;51.728;8.748;2024-03-06T10:08:45;53.20;;;39.15;;
34924;SDS011;21130;51.728;8.748;2024-03-06T10:11:12;53.25;;;38.53;;
34924;SDS011;21130;51.728;8.748;2024-03-06T10:13:39;56.15;;;40.58;;
34924;SDS011;21130;51.728;8.748;2024-03-06T10:16:05;56.40;;;40.92;;
34924;SDS011;21130;51.728;8.748;2024-03-06T10:18:35;56.78;;;39.25;;
34924;SDS011;21130;51.728;8.748;2024-03-06T10:21:04;56.55;;;39.53;;
34924;SDS011;21130;51.728;8.748;2024-03-06T10:23:32;59.53;;;40.80;;
34924;SDS011;21130;51.728;8.748;2024-03-06T10:25:59;55.35;;;38.85;;
34924;SDS011;21130;51.728;8.748;2024-03-06T10:28:26;55.95;;;39.20;;
34924;SDS011;21130;51.728;8.748;2024-03-06T10:31:02;58.42;;;40.47;;
34924;SDS011;21130;51.728;8.748;2024-03-06T10:33:31;62.00;;;40.45;;
34924;SDS011;21130;51.728;8.748;2024-03-06T10:45:21;55.65;;;38.75;;
34924;SDS011;21130;51.728;8.748;2024-03-06T10:47:54;52.17;;;38.40;;
34924;SDS011;21130;51.728;8.748;2024-03-06T10:50:21;55.45;;;38.65;;
34924;SDS011;21130;51.728;8.748;2024-03-06T10:52:49;51.00;;;37.80;;
34924;SDS011;21130;51.728;8.748;2024-03-06T10:55:20;53.00;;;37.67;;
34924;SDS011;21130;51.728;8.748;2024-03-06T10:57:48;53.05;;;37.88;;
34924;SDS011;21130;51.728;8.748;2024-03-06T11:00:18;51.63;;;36.13;;
34924;SDS011;21130;51.728;8.748;2024-03-06T11:02:47;47.63;;;33.97;;
34924;SDS011;21130;51.728;8.748;2024-03-06T11:05:16;47.88;;;36.38;;
34924;SDS011;21130;51.728;8.748;2024-03-06T11:07:43;50.78;;;37.05;;
34924;SDS011;21130;51.728;8.748;2024-03-06T11:10:09;52.90;;;38.10;;
34924;SDS011;21130;51.728;8.748;2024-03-06T11:12:41;54.15;;;36.55;;
34924;SDS011;21130;51.728;8.748;2024-03-06T11:15:10;53.20;;;38.25;;
34924;SDS011;21130;51.728;8.748;2024-03-06T11:17:39;54.63;;;39.20;;
34924;SDS011;21130;51.728;8.748;2024-03-06T11:20:16;54.58;;;40.00;;
34924;SDS011;21130;51.728;8.748;2024-03-06T11:23:02;55.90;;;39.17;;
34924;SDS011;21130;51.728;8.748;2024-03-06T11:28:28;50.33;;;34.95;;
34924;SDS011;21130;51.728;8.748;2024-03-06T11:30:56;46.53;;;33.97;;
34924;SDS011;21130;51.728;8.748;2024-03-06T11:33:23;49.30;;;35.95;;
34924;SDS011;21130;51.728;8.748;2024-03-06T11:38:42;45.40;;;31.92;;
34924;SDS011;21130;51.728;8.748;2024-03-06T11:41:12;48.33;;;34.00;;
34924;SDS011;21130;51.728;8.748;2024-03-06T11:43:43;48.83;;;35.00;;
34924;SDS011;21130;51.728;8.748;2024-03-06T11:46:11;46.13;;;33.08;;
34924;SDS011;21130;51.728;8.748;2024-03-06T11:48:37;48.50;;;33.85;;
34924;SDS011;21130;51.728;8.748;2024-03-06T11:51:04;44.17;;;33.40;;
34924;SDS011;21130;51.728;8.748;2024-03-06T11:53:34;43.00;;;32.15;;
34924;SDS011;21130;51.728;8.748;2024-03-06T11:56:01;43.15;;;31.58;;
34924;SDS011;21130;51.728;8.748;2024-03-06T11:58:32;42.15;;;32.28;;
34924;SDS011;21130;51.728;8.748;2024-03-06T12:00:59;43.80;;;32.17;;
34924;SDS011;21130;51.728;8.748;2024-03-06T12:03:26;46.17;;;33.78;;
34924;SDS011;21130;51.728;8.748;2024-03-06T12:05:53;48.78;;;33.92;;
34924;SDS011;21130;51.728;8.748;2024-03-06T12:08:19;49.17;;;34.95;;
34924;SDS011;21130;51.728;8.748;2024-03-06T12:10:47;46.80;;;35.28;;
34924;SDS011;21130;51.728;8.748;2024-03-06T12:13:14;42.95;;;32.85;;
34924;SDS011;21130;51.728;8.748;2024-03-06T12:15:42;47.70;;;34.20;;
34924;SDS011;21130;51.728;8.748;2024-03-06T12:18:09;49.03;;;34.10;;
34924;SDS011;21130;51.728;8.748;2024-03-06T12:20:39;46.25;;;33.55;;
34924;SDS011;21130;51.728;8.748;2024-03-06T12:23:10;43.65;;;30.63;;
34924;SDS011;21130;51.728;8.748;2024-03-06T12:25:47;51.33;;;36.15;;
34924;SDS011;21130;51.728;8.748;2024-03-06T12:28:13;45.45;;;31.75;;
34924;SDS011;21130;51.728;8.748;2024-03-06T12:30:41;46.55;;;32.00;;
34924;SDS011;21130;51.728;8.748;2024-03-06T12:33:09;46.13;;;31.63;;
34924;SDS011;21130;51.728;8.748;2024-03-06T12:35:39;45.08;;;31.02;;
34924;SDS011;21130;51.728;8.748;2024-03-06T12:38:11;46.75;;;32.90;;
34924;SDS011;21130;51.728;8.748;2024-03-06T12:40:38;47.90;;;31.92;;
34924;SDS011;21130;51.728;8.748;2024-03-06T12:43:07;46.13;;;30.85;;
34924;SDS011;21130;51.728;8.748;2024-03-06T12:45:36;48.40;;;32.10;;
34924;SDS011;21130;51.728;8.748;2024-03-06T12:48:03;45.83;;;30.95;;
34924;SDS011;21130;51.728;8.748;2024-03-06T12:50:31;43.35;;;31.33;;
34924;SDS011;21130;51.728;8.748;2024-03-06T12:52:58;47.25;;;31.67;;
34924;SDS011;21130;51.728;8.748;2024-03-06T12:55:24;41.40;;;29.50;;
34924;SDS011;21130;51.728;8.748;2024-03-06T12:57:51;41.38;;;29.00;;
34924;SDS011;21130;51.728;8.748;2024-03-06T13:00:19;45.38;;;30.48;;
34924;SDS011;21130;51.728;8.748;2024-03-06T13:02:45;43.22;;;29.15;;
34924;SDS011;21130;51.728;8.748;2024-03-06T13:05:12;43.60;;;29.83;;
34924;SDS011;21130;51.728;8.748;2024-03-06T13:07:39;39.30;;;28.38;;
34924;SDS011;21130;51.728;8.748;2024-03-06T13:10:07;40.88;;;28.92;;
34924;SDS011;21130;51.728;8.748;2024-03-06T13:12:35;39.70;;;27.73;;
34924;SDS011;21130;51.728;8.748;2024-03-06T13:15:02;39.78;;;28.00;;
34924;SDS011;21130;51.728;8.748;2024-03-06T13:17:30;34.33;;;26.15;;
34924;SDS011;21130;51.728;8.748;2024-03-06T13:19:57;39.95;;;27.20;;
34924;SDS011;21130;51.728;8.748;2024-03-06T13:22:23;37.95;;;27.58;;
34924;SDS011;21130;51.728;8.748;2024-03-06T13:24:50;41.50;;;28.27;;
34924;SDS011;21130;51.728;8.748;2024-03-06T13:27:17;45.08;;;29.73;;
34924;SDS011;21130;51.728;8.748;2024-03-06T13:29:43;43.30;;;29.45;;
34924;SDS011;21130;51.728;8.748;2024-03-06T13:32:10;42.47;;;29.42;;
34924;SDS011;21130;51.728;8.748;2024-03-06T13:34:38;39.28;;;28.35;;
34924;SDS011;21130;51.728;8.748;2024-03-06T13:37:04;41.05;;;28.80;;
34924;SDS011;21130;51.728;8.748;2024-03-06T13:39:35;41.88;;;28.52;;
34924;SDS011;21130;51.728;8.748;2024-03-06T13:42:01;41.05;;;28.02;;
34924;SDS011;21130;51.728;8.748;2024-03-06T13:44:28;35.05;;;25.85;;
34924;SDS011;21130;51.728;8.748;2024-03-06T13:46:55;35.63;;;26.48;;
34924;SDS011;21130;51.728;8.748;2024-03-06T13:52:10;38.17;;;26.58;;
34924;SDS011;21130;51.728;8.748;2024-03-06T13:54:38;36.15;;;27.88;;
34924;SDS011;21130;51.728;8.748;2024-03-06T13:57:06;37.78;;;27.00;;
34924;SDS011;21130;51.728;8.748;2024-03-06T13:59:32;39.75;;;27.30;;
34924;SDS011;21130;51.728;8.748;2024-03-06T14:02:00;37.55;;;27.08;;
34924;SDS011;21130;51.728;8.748;2024-03-06T14:04:27;37.50;;;27.85;;
34924;SDS011;21130;51.728;8.748;2024-03-06T14:06:56;37.13;;;27.88;;
34924;SDS011;21130;51.728;8.748;2024-03-06T14:09:23;37.47;;;28.73;;
34924;SDS011;21130;51.728;8.748;2024-03-06T14:11:50;38.28;;;28.45;;
34924;SDS011;21130;51.728;8.748;2024-03-06T14:14:17;34.10;;;26.95;;
34924;SDS011;21130;51.728;8.748;2024-03-06T14:16:44;35.80;;;27.33;;
34924;SDS011;21130;51.728;8.748;2024-03-06T14:19:10;34.72;;;26.63;;
34924;SDS011;21130;51.728;8.748;2024-03-06T14:21:37;33.38;;;26.23;;
34924;SDS011;21130;51.728;8.748;2024-03-06T14:24:05;34.08;;;26.20;;
34924;SDS011;21130;51.728;8.748;2024-03-06T14:26:32;34.45;;;26.63;;
34924;SDS011;21130;51.728;8.748;2024-03-06T14:28:59;33.58;;;25.88;;
34924;SDS011;21130;51.728;8.748;2024-03-06T14:31:26;33.40;;;25.30;;
34924;SDS011;21130;51.728;8.748;2024-03-06T14:33:53;34.08;;;27.33;;
34924;SDS011;21130;51.728;8.748;2024-03-06T14:36:19;35.50;;;26.42;;
34924;SDS011;21130;51.728;8.748;2024-03-06T14:38:49;36.08;;;28.13;;
34924;SDS011;21130;51.728;8.748;2024-03-06T14:41:18;35.47;;;28.55;;
34924;SDS011;21130;51.728;8.748;2024-03-06T14:43:45;36.47;;;28.25;;
34924;SDS011;21130;51.728;8.748;2024-03-06T14:46:12;38.00;;;28.17;;